Time;durP1;ratioP1;P1;durP2;ratioP2;P2;SDS_P1;SDS_P2;PMS_P1;PMS_P2;Temp;Humidity;BMP_temperature;BMP_pressure;BME280_temperature;BME280_humidity;BME280_pressure;Samples;Min_cycle;Max_cycle;Signal;HPM_P1;HPM_P2
2022/04/12 00:00:43;;;;;;;0.45;0.45;;;17.80;60.20;;;;;;4976260;28;20043;-14
2022/04/12 00:03:09;;;;;;;0.60;0.60;;;17.80;59.60;;;;;;4956725;28;20078;-14
2022/04/12 00:05:35;;;;;;;0.75;0.75;;;17.80;59.60;;;;;;4965060;28;20047;-13
2022/04/12 00:08:01;;;;;;;0.77;0.60;;;17.80;59.60;;;;;;4964977;28;20055;-13
2022/04/12 00:10:27;;;;;;;1.15;0.70;;;17.80;59.50;;;;;;4964093;28;20121;-13
2022/04/12 00:12:53;;;;;;;0.45;0.45;;;17.80;59.60;;;;;;4969706;28;20181;-13
2022/04/12 00:15:19;;;;;;;0.50;0.50;;;17.70;59.60;;;;;;4972086;28;20083;-13
2022/04/12 00:20:29;;;;;;;0.60;0.55;;;17.80;59.50;;;;;;4957057;28;20062;-13
2022/04/12 00:22:56;;;;;;;0.50;0.50;;;17.80;59.70;;;;;;4959200;28;20055;-13
2022/04/12 00:25:22;;;;;;;0.70;0.70;;;17.70;59.60;;;;;;4960445;28;20516;-14
2022/04/12 00:27:49;;;;;;;0.52;0.43;;;17.80;59.50;;;;;;4961699;28;20176;-13
2022/04/12 00:30:14;;;;;;;0.50;0.50;;;17.80;59.50;;;;;;4978983;28;20047;-13
2022/04/12 00:32:40;;;;;;;0.50;0.50;;;17.80;59.50;;;;;;4977571;28;20058;-14
2022/04/12 00:35:06;;;;;;;1.33;0.80;;;17.80;59.60;;;;;;4979016;28;20071;-13
2022/04/12 00:37:32;;;;;;;1.95;0.77;;;17.80;59.50;;;;;;4978737;28;20500;-13
2022/04/12 00:39:57;;;;;;;0.65;0.50;;;17.80;59.60;;;;;;4978324;28;20074;-13
2022/04/12 00:42:23;;;;;;;1.13;0.80;;;17.80;59.70;;;;;;4975119;28;20047;-15
2022/04/12 00:44:48;;;;;;;0.50;0.50;;;17.80;59.60;;;;;;4979328;28;20046;-13
2022/04/12 00:47:14;;;;;;;0.85;0.50;;;17.80;59.60;;;;;;4978093;28;20114;-13
2022/04/12 00:49:40;;;;;;;0.32;0.32;;;17.80;59.60;;;;;;4979450;28;20042;-14
2022/04/12 00:52:09;;;;;;;0.45;0.45;;;17.80;59.60;;;;;;4977848;28;20054;-14
2022/04/12 00:54:36;;;;;;;0.90;0.63;;;17.80;59.60;;;;;;4977753;28;20043;-14
2022/04/12 00:57:02;;;;;;;0.75;0.60;;;17.80;60.30;;;;;;4977410;28;20047;-13
2022/04/12 00:59:28;;;;;;;0.82;0.77;;;17.80;59.50;;;;;;4974331;28;20066;-15
2022/04/12 01:01:54;;;;;;;0.40;0.40;;;17.70;59.50;;;;;;4965228;28;20098;-16
2022/04/12 01:04:19;;;;;;;0.68;0.63;;;17.80;59.50;;;;;;4977574;28;20096;-14
2022/04/12 01:06:46;;;;;;;0.60;0.60;;;17.80;59.70;;;;;;4978772;28;20392;-15
2022/04/12 01:09:12;;;;;;;0.50;0.50;;;17.80;59.60;;;;;;4975138;28;20039;-14
2022/04/12 01:11:39;;;;;;;0.40;0.40;;;17.80;59.50;;;;;;4977317;28;20488;-14
2022/04/12 01:14:05;;;;;;;0.50;0.50;;;17.80;59.50;;;;;;4978340;28;20106;-15
2022/04/12 01:16:31;;;;;;;0.52;0.52;;;17.70;59.60;;;;;;4959704;28;20039;-15
2022/04/12 01:18:57;;;;;;;0.43;0.32;;;17.80;59.70;;;;;;4958978;28;20098;-14
2022/04/12 01:21:22;;;;;;;0.60;0.50;;;17.80;59.60;;;;;;4959247;28;20512;-14
2022/04/12 01:23:57;;;;;;;0.43;0.43;;;17.70;59.50;;;;;;4958211;28;20079;-15
2022/04/12 01:26:23;;;;;;;0.50;0.50;;;17.70;59.60;;;;;;4959006;28;20066;-14
2022/04/12 01:28:48;;;;;;;0.60;0.60;;;17.80;59.70;;;;;;4959286;28;20046;-14
2022/04/12 01:31:14;;;;;;;0.73;0.35;;;17.70;59.70;;;;;;4958347;28;20089;-15
2022/04/12 01:33:39;;;;;;;0.38;0.38;;;17.70;59.70;;;;;;4959342;28;20186;-14
2022/04/12 01:36:05;;;;;;;0.68;0.43;;;17.70;59.80;;;;;;4958557;28;20496;-14
2022/04/12 01:38:31;;;;;;;0.70;0.60;;;17.70;59.80;;;;;;4958968;28;20043;-14
2022/04/12 01:40:56;;;;;;;0.65;0.50;;;17.70;59.80;;;;;;4972429;28;20034;-14
2022/04/12 01:43:22;;;;;;;0.30;0.30;;;17.70;59.80;;;;;;4978386;28;20054;-14
2022/04/12 01:45:47;;;;;;;0.50;0.50;;;17.70;59.80;;;;;;4978664;28;20492;-15
2022/04/12 01:48:13;;;;;;;0.40;0.40;;;17.70;59.70;;;;;;4972466;28;20051;-14
2022/04/12 01:50:39;;;;;;;0.47;0.43;;;17.70;59.90;;;;;;4971314;28;20051;-15
2022/04/12 01:53:05;;;;;;;0.40;0.40;;;17.70;59.90;;;;;;4962862;28;20424;-14
2022/04/12 01:55:30;;;;;;;0.47;0.47;;;17.70;59.90;;;;;;4968992;28;20049;-14
2022/04/12 01:57:56;;;;;;;0.30;0.30;;;17.70;60.70;;;;;;4977671;28;20077;-16
2022/04/12 02:00:21;;;;;;;0.38;0.38;;;17.80;60.00;;;;;;4966162;28;20067;-14
2022/04/12 02:02:47;;;;;;;0.80;0.40;;;17.70;59.80;;;;;;4958759;28;20393;-14
2022/04/12 02:05:12;;;;;;;0.50;0.50;;;17.70;59.90;;;;;;4976304;28;20035;-14
2022/04/12 02:07:38;;;;;;;0.50;0.50;;;17.70;59.80;;;;;;4974144;28;20051;-15
2022/04/12 02:10:04;;;;;;;0.43;0.43;;;17.70;59.90;;;;;;4965531;28;20039;-14
2022/04/12 02:12:30;;;;;;;0.40;0.40;;;17.70;60.00;;;;;;4972080;28;20055;-13
2022/04/12 02:14:56;;;;;;;0.40;0.40;;;17.60;59.90;;;;;;4958487;28;20058;-14
2022/04/12 02:17:21;;;;;;;0.65;0.47;;;17.60;60.00;;;;;;4958225;28;20066;-14
2022/04/12 02:19:48;;;;;;;0.57;0.40;;;17.70;60.00;;;;;;4968822;28;20054;-14
2022/04/12 02:22:13;;;;;;;0.47;0.40;;;17.60;60.00;;;;;;4967901;28;20047;-14
2022/04/12 02:24:39;;;;;;;0.30;0.30;;;17.60;60.00;;;;;;4958057;28;20050;-14
2022/04/12 02:27:05;;;;;;;0.40;0.40;;;17.70;60.00;;;;;;4957936;28;20039;-14
2022/04/12 02:29:30;;;;;;;0.38;0.38;;;17.60;60.00;;;;;;4958244;28;20398;-15
2022/04/12 02:31:56;;;;;;;0.40;0.40;;;17.70;60.00;;;;;;4958178;28;20508;-14
2022/04/12 02:34:21;;;;;;;0.35;0.30;;;17.60;59.90;;;;;;4957499;28;20412;-14
2022/04/12 02:36:47;;;;;;;0.50;0.50;;;17.70;60.00;;;;;;4957825;28;20091;-14
2022/04/12 02:39:13;;;;;;;0.28;0.28;;;17.60;60.00;;;;;;4965252;28;20405;-14
2022/04/12 02:41:38;;;;;;;0.43;0.38;;;17.70;60.10;;;;;;4977233;28;20133;-14
2022/04/12 02:44:04;;;;;;;0.38;0.38;;;17.60;60.10;;;;;;4975809;28;20038;-14
2022/04/12 02:46:30;;;;;;;0.50;0.50;;;17.60;60.00;;;;;;4960283;28;20110;-14
2022/04/12 02:48:55;;;;;;;0.52;0.52;;;17.60;60.20;;;;;;4957876;28;20054;-15
2022/04/12 02:51:21;;;;;;;0.45;0.45;;;17.60;60.30;;;;;;4957978;28;20404;-14
2022/04/12 02:53:47;;;;;;;0.50;0.47;;;17.60;60.20;;;;;;4957475;28;20082;-14
2022/04/12 02:56:13;;;;;;;0.40;0.40;;;17.70;60.20;;;;;;4957226;28;20134;-13
2022/04/12 02:58:39;;;;;;;0.30;0.30;;;17.60;60.30;;;;;;4957687;28;20424;-14
2022/04/12 03:01:04;;;;;;;0.30;0.30;;;17.60;60.30;;;;;;4957251;28;20039;-14
2022/04/12 03:03:30;;;;;;;0.30;0.30;;;17.60;60.20;;;;;;4969391;28;20042;-14
2022/04/12 03:05:55;;;;;;;0.63;0.45;;;17.60;60.20;;;;;;4976844;28;20051;-15
2022/04/12 03:08:22;;;;;;;0.55;0.40;;;17.60;60.30;;;;;;4972897;28;20521;-14
2022/04/12 03:10:47;;;;;;;0.43;0.40;;;17.60;60.10;;;;;;4957557;28;20043;-14
2022/04/12 03:13:13;;;;;;;0.40;0.40;;;17.60;60.30;;;;;;4972949;28;20045;-14
2022/04/12 03:15:38;;;;;;;0.63;0.38;;;17.60;60.30;;;;;;4976006;28;20067;-14
2022/04/12 03:18:04;;;;;;;0.30;0.30;;;17.60;60.20;;;;;;4968278;28;20179;-14
2022/04/12 03:20:30;;;;;;;0.40;0.30;;;17.60;60.20;;;;;;4957195;28;20050;-14
2022/04/12 03:22:56;;;;;;;0.43;0.43;;;17.60;60.20;;;;;;4957223;28;20176;-13
2022/04/12 03:25:21;;;;;;;0.40;0.40;;;17.60;60.20;;;;;;4956739;28;20051;-15
2022/04/12 03:27:48;;;;;;;0.28;0.28;;;17.60;60.20;;;;;;4957562;28;20102;-14
2022/04/12 03:30:13;;;;;;;0.40;0.40;;;17.60;60.40;;;;;;4964866;28;20412;-14
2022/04/12 03:32:39;;;;;;;0.20;0.20;;;17.60;60.30;;;;;;4990479;28;20420;-14
2022/04/12 03:35:05;;;;;;;0.65;0.30;;;17.60;60.30;;;;;;4956421;28;20058;-14
2022/04/12 03:37:30;;;;;;;0.60;0.50;;;17.70;60.30;;;;;;4957439;28;20051;-14
2022/04/12 03:39:56;;;;;;;0.40;0.30;;;17.60;60.50;;;;;;4957298;28;20051;-14
2022/04/12 03:42:22;;;;;;;0.50;0.35;;;17.60;60.60;;;;;;4973231;28;20046;-14
2022/04/12 03:44:48;;;;;;;1.88;0.30;;;17.60;60.70;;;;;;4971844;28;20055;-15
2022/04/12 03:47:13;;;;;;;0.32;0.20;;;17.60;60.60;;;;;;4956584;28;20130;-15
2022/04/12 03:49:39;;;;;;;0.30;0.20;;;17.60;60.50;;;;;;4958434;28;20047;-15
2022/04/12 03:52:05;;;;;;;0.22;0.20;;;17.60;60.70;;;;;;4974486;28;20102;-14
2022/04/12 03:54:31;;;;;;;0.40;0.40;;;17.60;60.60;;;;;;4975785;28;20050;-15
2022/04/12 03:56:57;;;;;;;0.30;0.30;;;17.60;60.70;;;;;;4980345;28;20460;-13
2022/04/12 03:59:22;;;;;;;0.22;0.22;;;17.60;60.70;;;;;;4976436;28;20055;-13
2022/04/12 04:01:49;;;;;;;0.30;0.30;;;17.60;60.70;;;;;;4973602;28;20039;-13
2022/04/12 04:04:15;;;;;;;0.20;0.20;;;17.60;60.50;;;;;;4979080;28;20047;-13
2022/04/12 04:06:41;;;;;;;0.20;0.20;;;17.60;60.70;;;;;;4980147;28;20035;-13
2022/04/12 04:09:07;;;;;;;0.52;0.40;;;17.60;60.50;;;;;;4976983;28;20046;-13
2022/04/12 04:11:33;;;;;;;0.30;0.30;;;17.60;60.70;;;;;;4980007;28;20035;-12
2022/04/12 04:14:01;;;;;;;0.40;0.30;;;17.60;60.60;;;;;;4979390;28;20039;-13
2022/04/12 04:16:27;;;;;;;0.30;0.30;;;17.60;60.70;;;;;;4975917;28;20083;-13
2022/04/12 04:18:53;;;;;;;0.40;0.40;;;17.60;60.70;;;;;;4978415;28;20071;-13
2022/04/12 04:21:18;;;;;;;0.17;0.17;;;17.60;60.60;;;;;;4977958;28;20047;-17
2022/04/12 04:23:45;;;;;;;0.30;0.30;;;17.60;60.50;;;;;;4978036;28;20047;-13
2022/04/12 04:26:10;;;;;;;0.40;0.40;;;17.60;60.70;;;;;;4977324;28;20093;-14
2022/04/12 04:28:36;;;;;;;0.60;0.47;;;17.60;60.60;;;;;;4978449;28;20043;-14
2022/04/12 04:31:01;;;;;;;0.50;0.50;;;17.60;60.70;;;;;;4973084;28;20408;-14
2022/04/12 04:33:27;;;;;;;0.60;0.40;;;17.60;60.80;;;;;;4975360;28;20046;-13
2022/04/12 04:35:53;;;;;;;0.40;0.38;;;17.60;60.80;;;;;;4972201;28;20039;-13
2022/04/12 04:38:19;;;;;;;1.08;0.43;;;17.60;60.80;;;;;;4977436;28;20098;-14
2022/04/12 04:40:44;;;;;;;0.30;0.30;;;17.60;60.90;;;;;;4978332;28;20041;-14
2022/04/12 04:43:10;;;;;;;0.47;0.40;;;17.60;60.60;;;;;;4976989;28;20055;-14
2022/04/12 04:45:35;;;;;;;0.15;0.15;;;17.60;60.70;;;;;;4977771;28;20096;-14
2022/04/12 04:48:02;;;;;;;0.20;0.20;;;17.50;60.70;;;;;;4978107;28;20069;-13
2022/04/12 04:50:32;;;;;;;0.30;0.20;;;17.50;60.60;;;;;;4976331;28;20047;-14
2022/04/12 04:52:58;;;;;;;0.43;0.43;;;17.60;60.70;;;;;;4974685;28;20050;-13
2022/04/12 04:55:24;;;;;;;0.47;0.47;;;17.60;60.70;;;;;;4972438;28;20415;-14
2022/04/12 04:57:55;;;;;;;0.40;0.40;;;17.60;60.50;;;;;;4967304;28;20043;-15
2022/04/12 05:00:22;;;;;;;0.40;0.40;;;17.60;60.80;;;;;;4997882;28;20412;-13
2022/04/12 05:02:51;;;;;;;0.50;0.30;;;17.50;60.80;;;;;;4973219;28;20039;-14
2022/04/12 05:05:17;;;;;;;0.32;0.32;;;17.50;60.60;;;;;;4963713;28;20407;-13
2022/04/12 05:07:46;;;;;;;0.30;0.28;;;17.60;60.70;;;;;;4968311;28;20047;-13
2022/04/12 05:10:16;;;;;;;1.38;0.30;;;17.60;60.70;;;;;;4974373;28;20046;-14
2022/04/12 05:12:41;;;;;;;0.22;0.20;;;17.50;60.70;;;;;;4969957;28;20130;-16
2022/04/12 05:15:07;;;;;;;0.45;0.30;;;17.50;60.80;;;;;;4958309;28;20070;-16
2022/04/12 05:17:33;;;;;;;0.20;0.20;;;17.50;60.70;;;;;;4967561;28;20494;-14
2022/04/12 05:19:59;;;;;;;0.32;0.32;;;17.50;60.70;;;;;;4964848;28;20065;-13
2022/04/12 05:22:26;;;;;;;0.22;0.20;;;17.50;60.70;;;;;;4998180;28;20047;-15
2022/04/12 05:24:52;;;;;;;0.30;0.30;;;17.50;60.60;;;;;;4966755;28;20054;-14
2022/04/12 05:27:18;;;;;;;0.45;0.40;;;17.50;60.70;;;;;;4968322;28;20078;-13
2022/04/12 05:29:43;;;;;;;0.52;0.30;;;17.50;60.60;;;;;;4972348;28;20121;-14
2022/04/12 05:32:09;;;;;;;0.50;0.32;;;17.50;60.80;;;;;;4975937;28;20046;-13
2022/04/12 05:34:42;;;;;;;0.60;0.30;;;17.50;60.70;;;;;;4976165;28;20043;-14
2022/04/12 05:37:08;;;;;;;0.63;0.57;;;17.60;60.70;;;;;;4972026;28;20137;-13
2022/04/12 05:39:34;;;;;;;0.28;0.28;;;17.50;60.70;;;;;;4958842;28;20133;-14
2022/04/12 05:42:00;;;;;;;0.60;0.40;;;17.50;60.60;;;;;;4973979;28;20054;-13
2022/04/12 05:44:32;;;;;;;0.20;0.20;;;17.50;60.80;;;;;;4975157;28;20389;-13
2022/04/12 05:46:58;;;;;;;0.22;0.22;;;17.60;60.50;;;;;;4973286;28;20504;-14
2022/04/12 05:49:23;;;;;;;0.20;0.20;;;17.60;60.90;;;;;;4977734;28;20378;-13
2022/04/12 05:51:49;;;;;;;0.38;0.22;;;17.50;60.90;;;;;;4976751;28;20070;-14
2022/04/12 05:54:14;;;;;;;0.55;0.38;;;17.50;60.90;;;;;;4958055;28;20082;-13
2022/04/12 05:56:40;;;;;;;0.32;0.30;;;17.50;60.90;;;;;;4622899;28;9999852;-13
2022/04/12 05:59:06;;;;;;;0.25;0.20;;;17.50;60.90;;;;;;4969172;28;20105;-14
2022/04/12 06:01:32;;;;;;;0.73;0.30;;;17.50;61.10;;;;;;4976586;28;20054;-14
2022/04/12 06:03:57;;;;;;;2.30;0.40;;;17.50;61.00;;;;;;4972279;28;20333;-13
2022/04/12 06:06:23;;;;;;;0.28;0.20;;;17.50;61.00;;;;;;4972783;28;20043;-13
2022/04/12 06:08:49;;;;;;;0.82;0.40;;;17.50;60.90;;;;;;4969289;28;20130;-14
2022/04/12 06:11:14;;;;;;;0.15;0.15;;;17.50;60.80;;;;;;4974381;28;20046;-13
2022/04/12 06:13:40;;;;;;;1.45;0.63;;;17.50;60.80;;;;;;4970084;28;20134;-13
2022/04/12 06:16:05;;;;;;;0.40;0.35;;;17.50;60.70;;;;;;4974176;28;20047;-13
2022/04/12 06:18:31;;;;;;;0.90;0.20;;;17.50;60.70;;;;;;4965785;28;20053;-14
2022/04/12 06:20:56;;;;;;;0.73;0.40;;;17.50;60.60;;;;;;4968051;28;20170;-13
2022/04/12 06:23:22;;;;;;;0.30;0.20;;;17.40;60.50;;;;;;4970138;28;20070;-14
2022/04/12 06:25:48;;;;;;;0.35;0.35;;;17.40;60.40;;;;;;4973172;28;20064;-14
2022/04/12 06:28:13;;;;;;;0.20;0.20;;;17.40;60.40;;;;;;4961499;28;20049;-14
2022/04/12 06:30:39;;;;;;;0.20;0.20;;;17.40;60.40;;;;;;4972926;28;20058;-14
2022/04/12 06:33:04;;;;;;;0.30;0.28;;;17.50;60.50;;;;;;4966672;28;20123;-14
2022/04/12 06:35:30;;;;;;;0.20;0.20;;;17.50;61.40;;;;;;4969222;28;20054;-14
2022/04/12 06:37:59;;;;;;;0.45;0.40;;;17.50;61.30;;;;;;4966851;28;20062;-13
2022/04/12 06:40:24;;;;;;;1.23;0.20;;;17.50;61.10;;;;;;4967938;28;20113;-14
2022/04/12 06:42:50;;;;;;;0.35;0.20;;;17.50;61.60;;;;;;4973223;28;20051;-14
2022/04/12 06:45:16;;;;;;;0.52;0.30;;;17.50;60.50;;;;;;4968592;28;20050;-13
2022/04/12 06:47:42;;;;;;;0.20;0.20;;;17.60;60.50;;;;;;4969147;28;20046;-15
2022/04/12 06:50:09;;;;;;;1.50;0.20;;;17.60;60.40;;;;;;4960446;28;20054;-13
2022/04/12 06:52:34;;;;;;;1.67;0.30;;;17.50;62.30;;;;;;4953249;28;20051;-16
2022/04/12 06:55:00;;;;;;;1.48;0.30;;;17.50;63.20;;;;;;4954988;28;20066;-16
2022/04/12 06:57:29;;;;;;;0.57;0.32;;;17.50;63.10;;;;;;4958035;28;20138;-15
2022/04/12 06:59:55;;;;;;;5.15;0.40;;;17.60;62.00;;;;;;4954466;28;20121;-15
2022/04/12 07:02:21;;;;;;;0.52;0.43;;;17.60;62.20;;;;;;4955641;28;20523;-15
2022/04/12 07:04:46;;;;;;;1.48;0.50;;;17.60;61.40;;;;;;4958054;28;20589;-16
2022/04/12 07:07:12;;;;;;;0.40;0.30;;;17.60;61.70;;;;;;4958096;28;20145;-16
2022/04/12 07:09:38;;;;;;;0.50;0.20;;;17.60;61.10;;;;;;4956554;28;20483;-15
2022/04/12 07:12:04;;;;;;;0.40;0.40;;;17.70;60.90;;;;;;4956571;28;20144;-16
2022/04/12 07:14:31;;;;;;;0.40;0.40;;;17.70;61.00;;;;;;4957709;28;20081;-15
2022/04/12 07:16:56;;;;;;;0.32;0.20;;;17.70;61.20;;;;;;4958800;28;20061;-15
2022/04/12 07:19:22;;;;;;;0.30;0.30;;;17.70;61.20;;;;;;4957565;28;20058;-14
2022/04/12 07:21:48;;;;;;;0.57;0.38;;;17.60;61.10;;;;;;4954639;28;20720;-15
2022/04/12 07:24:13;;;;;;;0.50;0.40;;;17.70;61.30;;;;;;4957417;28;20050;-14
2022/04/12 07:26:39;;;;;;;1.95;0.30;;;17.60;61.30;;;;;;4958502;28;20046;-14
2022/04/12 07:29:05;;;;;;;0.90;0.50;;;17.60;61.40;;;;;;4958596;28;20061;-13
2022/04/12 07:31:31;;;;;;;1.23;0.30;;;17.60;61.60;;;;;;4955804;28;20046;-14
2022/04/12 07:33:56;;;;;;;0.52;0.40;;;17.60;61.50;;;;;;4958523;28;20047;-16
2022/04/12 07:36:22;;;;;;;1.35;0.30;;;17.60;61.80;;;;;;4957355;28;20046;-14
2022/04/12 07:38:51;;;;;;;0.63;0.38;;;17.60;61.60;;;;;;4958582;28;20043;-14
2022/04/12 07:41:17;;;;;;;0.30;0.30;;;17.60;61.80;;;;;;4956447;28;20100;-14
2022/04/12 07:43:45;;;;;;;0.40;0.38;;;17.70;62.20;;;;;;4957685;28;20658;-15
2022/04/12 07:46:11;;;;;;;0.75;0.50;;;17.80;61.90;;;;;;4957541;28;20059;-14
2022/04/12 07:48:37;;;;;;;1.55;0.45;;;17.80;62.20;;;;;;4957980;28;20055;-14
2022/04/12 07:51:02;;;;;;;0.73;0.40;;;17.80;62.00;;;;;;4956105;28;20058;-15
2022/04/12 07:53:28;;;;;;;1.30;0.40;;;17.80;62.00;;;;;;4957885;28;20412;-14
2022/04/12 07:55:53;;;;;;;0.47;0.30;;;17.70;62.70;;;;;;4957977;28;20054;-14
2022/04/12 07:58:19;;;;;;;2.05;0.40;;;17.70;61.60;;;;;;4957597;28;20058;-14
2022/04/12 08:00:45;;;;;;;0.43;0.30;;;17.80;62.20;;;;;;4954828;28;20544;-14
2022/04/12 08:03:10;;;;;;;0.40;0.30;;;17.80;62.20;;;;;;4958388;28;20058;-14
2022/04/12 08:05:36;;;;;;;0.40;0.40;;;17.80;61.80;;;;;;4957371;28;21245;-14
2022/04/12 08:08:02;;;;;;;0.30;0.30;;;17.80;62.30;;;;;;4956564;28;20047;-16
2022/04/12 08:10:27;;;;;;;0.20;0.20;;;17.80;62.00;;;;;;4953954;28;20117;-14
2022/04/12 08:12:53;;;;;;;1.10;0.30;;;17.90;62.50;;;;;;4958054;28;20480;-14
2022/04/12 08:15:19;;;;;;;0.40;0.40;;;17.80;62.30;;;;;;4957053;28;20061;-14
2022/04/12 08:17:44;;;;;;;0.60;0.30;;;17.80;62.50;;;;;;4957703;28;20086;-14
2022/04/12 08:20:10;;;;;;;1.85;0.40;;;17.80;62.40;;;;;;4955005;28;20043;-15
2022/04/12 08:22:36;;;;;;;0.40;0.30;;;17.80;62.10;;;;;;4955967;28;20126;-15
2022/04/12 08:25:03;;;;;;;0.40;0.30;;;17.80;61.60;;;;;;4958967;28;20407;-15
2022/04/12 08:27:28;;;;;;;1.67;0.30;;;17.80;61.70;;;;;;4957231;28;20431;-14
2022/04/12 08:29:54;;;;;;;1.00;0.38;;;17.90;61.50;;;;;;4958294;28;20414;-15
2022/04/12 08:32:19;;;;;;;0.52;0.20;;;17.80;60.90;;;;;;4951719;28;20053;-16
2022/04/12 08:34:45;;;;;;;0.40;0.35;;;17.90;61.80;;;;;;4958495;28;20049;-14
2022/04/12 08:37:11;;;;;;;0.50;0.30;;;17.90;62.10;;;;;;4957814;28;20061;-14
2022/04/12 08:39:37;;;;;;;0.55;0.30;;;17.90;61.60;;;;;;4957507;28;20586;-15
2022/04/12 08:42:04;;;;;;;0.73;0.38;;;17.90;61.40;;;;;;4955161;28;20763;-15
2022/04/12 08:44:30;;;;;;;0.55;0.30;;;17.90;61.10;;;;;;4959583;28;20647;-15
2022/04/12 08:46:56;;;;;;;0.38;0.28;;;17.90;61.60;;;;;;4961867;28;20051;-14
2022/04/12 08:49:23;;;;;;;1.90;0.30;;;17.90;61.10;;;;;;4961148;28;20771;-14
2022/04/12 08:51:48;;;;;;;0.85;0.30;;;17.90;61.20;;;;;;4956794;28;20057;-16
2022/04/12 08:54:15;;;;;;;0.32;0.30;;;17.90;60.90;;;;;;4960267;28;20047;-16
2022/04/12 08:56:43;;;;;;;0.60;0.60;;;17.90;60.80;;;;;;4958844;28;20545;-14
2022/04/12 08:59:08;;;;;;;0.68;0.45;;;17.90;60.90;;;;;;4959852;28;20518;-14
2022/04/12 09:01:34;;;;;;;0.50;0.50;;;17.90;60.80;;;;;;4956041;28;20054;-14
2022/04/12 09:04:00;;;;;;;0.80;0.40;;;17.90;61.00;;;;;;4960817;28;20223;-14
2022/04/12 09:06:26;;;;;;;0.70;0.40;;;17.90;60.80;;;;;;4960359;28;20439;-14
2022/04/12 09:08:51;;;;;;;0.70;0.40;;;18.00;60.60;;;;;;4960798;28;20111;-14
2022/04/12 09:11:17;;;;;;;0.40;0.40;;;17.90;60.30;;;;;;4956680;28;20101;-14
2022/04/12 09:13:59;;;;;;;1.13;0.38;;;17.90;60.40;;;;;;4960119;28;20070;-15
2022/04/12 09:16:25;;;;;;;0.52;0.30;;;18.00;60.50;;;;;;4959596;28;20059;-14
2022/04/12 09:18:51;;;;;;;0.80;0.40;;;18.00;60.50;;;;;;4961312;28;20061;-14
2022/04/12 09:21:21;;;;;;;0.32;0.20;;;18.00;60.40;;;;;;4956660;28;20137;-15
2022/04/12 09:23:50;;;;;;;0.25;0.20;;;18.00;60.40;;;;;;4959627;28;20552;-14
2022/04/12 09:26:23;;;;;;;0.28;0.28;;;18.00;60.10;;;;;;4954996;28;20050;-16
2022/04/12 09:28:49;;;;;;;0.28;0.28;;;18.00;60.10;;;;;;4958120;28;20058;-15
2022/04/12 09:31:16;;;;;;;0.50;0.50;;;18.00;60.10;;;;;;4953692;28;20065;-13
2022/04/12 09:33:42;;;;;;;0.40;0.38;;;18.00;60.00;;;;;;4959564;28;20496;-14
2022/04/12 09:36:08;;;;;;;0.60;0.47;;;18.00;60.00;;;;;;4960392;28;20142;-13
2022/04/12 09:38:34;;;;;;;0.60;0.35;;;18.00;60.00;;;;;;4959134;28;21557;-14
2022/04/12 09:41:23;;;;;;;0.30;0.30;;;18.00;60.00;;;;;;4955650;28;20050;-15
2022/04/12 09:43:52;;;;;;;1.08;0.30;;;18.10;59.90;;;;;;4959501;28;20062;-14
2022/04/12 09:46:17;;;;;;;0.30;0.30;;;18.00;59.90;;;;;;4959972;28;20119;-15
2022/04/12 09:48:50;;;;;;;0.50;0.30;;;18.00;59.80;;;;;;4959821;28;20123;-14
2022/04/12 09:51:16;;;;;;;0.30;0.30;;;18.10;59.80;;;;;;4954306;28;20142;-14
2022/04/12 09:53:45;;;;;;;0.30;0.30;;;18.10;60.40;;;;;;4958085;28;20519;-15
2022/04/12 09:56:19;;;;;;;0.50;0.25;;;18.00;59.80;;;;;;4959042;28;20058;-14
2022/04/12 09:59:07;;;;;;;0.30;0.30;;;18.00;60.50;;;;;;4958556;28;20061;-14
2022/04/12 10:01:39;;;;;;;0.60;0.52;;;18.00;60.30;;;;;;4950422;28;20082;-14
2022/04/12 10:04:07;;;;;;;1.00;0.30;;;18.00;60.10;;;;;;4954395;28;20057;-14
2022/04/12 10:06:32;;;;;;;0.30;0.30;;;18.00;59.80;;;;;;4953176;28;20046;-14
2022/04/12 10:09:01;;;;;;;0.60;0.32;;;18.00;59.80;;;;;;4955966;28;20062;-15
2022/04/12 10:11:27;;;;;;;0.30;0.30;;;18.00;59.90;;;;;;4949915;28;20058;-15
2022/04/12 10:13:53;;;;;;;0.65;0.50;;;18.00;60.10;;;;;;4955738;28;20109;-16
2022/04/12 10:16:20;;;;;;;0.88;0.45;;;18.00;59.90;;;;;;4958273;28;20093;-15
2022/04/12 10:18:45;;;;;;;0.45;0.38;;;18.00;59.90;;;;;;4956579;28;20062;-15
2022/04/12 10:21:12;;;;;;;0.38;0.38;;;18.00;61.40;;;;;;4979449;28;20055;-14
2022/04/12 10:23:49;;;;;;;0.60;0.50;;;18.10;60.70;;;;;;4960074;28;20051;-14
2022/04/12 10:26:14;;;;;;;0.38;0.38;;;18.10;61.40;;;;;;4964634;28;20039;-14
2022/04/12 10:28:40;;;;;;;0.47;0.40;;;18.00;60.90;;;;;;4971658;28;20043;-14
2022/04/12 10:31:15;;;;;;;0.52;0.32;;;18.00;60.30;;;;;;4967536;28;20695;-15
2022/04/12 10:33:40;;;;;;;0.63;0.40;;;18.00;60.30;;;;;;4964677;28;20058;-14
2022/04/12 10:36:11;;;;;;;0.40;0.40;;;17.90;60.60;;;;;;4819322;28;10001104;-15
2022/04/12 10:38:39;;;;;;;0.22;0.20;;;17.90;60.70;;;;;;4967944;28;20271;-15
2022/04/12 10:41:12;;;;;;;0.40;0.40;;;18.00;60.70;;;;;;4974436;28;20042;-14
2022/04/12 10:43:39;;;;;;;0.50;0.43;;;18.00;60.50;;;;;;4967156;28;20074;-13
2022/04/12 10:46:08;;;;;;;0.50;0.35;;;17.90;60.70;;;;;;4968623;28;20050;-14
2022/04/12 10:48:33;;;;;;;0.40;0.20;;;17.80;61.00;;;;;;4966677;28;20050;-16
2022/04/12 10:51:00;;;;;;;1.00;0.50;;;17.90;60.90;;;;;;4987012;28;20050;-13
2022/04/12 10:53:38;;;;;;;0.95;0.40;;;18.00;61.00;;;;;;4967962;28;20055;-14
2022/04/12 10:56:14;;;;;;;0.35;0.35;;;18.10;60.50;;;;;;4967030;28;20122;-13
2022/04/12 10:58:40;;;;;;;0.63;0.50;;;18.10;60.60;;;;;;4959713;28;20054;-14
2022/04/12 11:01:09;;;;;;;0.50;0.50;;;18.20;60.60;;;;;;4963620;28;20130;-14
2022/04/12 11:03:41;;;;;;;0.63;0.47;;;18.10;60.90;;;;;;4965985;28;20062;-13
2022/04/12 11:06:13;;;;;;;0.38;0.38;;;18.10;60.90;;;;;;4964424;28;20050;-14
2022/04/12 11:08:39;;;;;;;2.13;0.43;;;18.10;61.00;;;;;;4968227;28;20058;-13
2022/04/12 11:11:06;;;;;;;0.40;0.40;;;18.10;61.20;;;;;;4966523;28;20042;-13
2022/04/12 11:13:33;;;;;;;0.80;0.60;;;18.10;61.60;;;;;;4962117;28;20109;-13
2022/04/12 11:16:09;;;;;;;0.80;0.50;;;18.10;61.50;;;;;;4956269;28;20075;-13
2022/04/12 11:18:47;;;;;;;1.42;0.50;;;18.00;61.90;;;;;;4966944;28;20043;-14
2022/04/12 11:21:13;;;;;;;0.50;0.50;;;18.00;61.70;;;;;;4966948;28;20047;-14
2022/04/12 11:23:49;;;;;;;1.20;0.57;;;18.10;61.70;;;;;;4964520;28;20050;-13
2022/04/12 11:26:37;;;;;;;0.50;0.40;;;18.10;62.00;;;;;;4963468;28;20058;-13
2022/04/12 11:29:15;;;;;;;0.77;0.43;;;18.00;62.00;;;;;;4956749;28;20049;-13
2022/04/12 11:31:47;;;;;;;0.50;0.40;;;18.00;62.10;;;;;;4971889;28;20126;-13
2022/04/12 11:34:13;;;;;;;0.60;0.40;;;18.00;62.10;;;;;;4970701;28;20049;-14
2022/04/12 11:36:39;;;;;;;0.40;0.40;;;18.00;62.30;;;;;;4971313;28;20516;-13
2022/04/12 11:39:06;;;;;;;0.50;0.40;;;18.00;62.40;;;;;;4963636;28;20138;-13
2022/04/12 11:41:32;;;;;;;0.77;0.50;;;18.00;62.80;;;;;;4970437;28;20069;-13
2022/04/12 11:44:01;;;;;;;1.75;0.70;;;18.00;62.80;;;;;;4962450;28;20496;-13
2022/04/12 11:46:29;;;;;;;0.50;0.43;;;18.00;63.10;;;;;;4969304;28;20142;-14
2022/04/12 11:49:03;;;;;;;0.65;0.40;;;18.00;62.30;;;;;;4969345;28;20058;-13
2022/04/12 11:51:29;;;;;;;;;;;18.00;62.70;;;;;;4963833;28;20410;-14
2022/04/12 11:53:54;;;;;;;0.68;0.47;;;17.90;63.10;;;;;;4975513;28;19988;-13
2022/04/12 11:56:20;;;;;;;1.02;0.55;;;17.90;62.80;;;;;;4974477;28;20045;-13
2022/04/12 11:58:45;;;;;;;0.85;0.60;;;18.00;62.50;;;;;;4981311;28;20062;-13
2022/04/12 12:01:13;;;;;;;0.88;0.50;;;18.00;63.40;;;;;;4965361;28;20047;-14
2022/04/12 12:03:42;;;;;;;2.35;1.00;;;17.90;63.60;;;;;;4972954;28;20059;-15
2022/04/12 12:06:08;;;;;;;0.88;0.52;;;17.90;63.10;;;;;;4966908;28;20534;-13
2022/04/12 12:08:34;;;;;;;1.23;0.60;;;17.80;63.20;;;;;;4965063;28;20047;-13
2022/04/12 12:11:09;;;;;;;3.80;0.60;;;17.80;63.00;;;;;;4969867;28;20043;-13
2022/04/12 12:13:35;;;;;;;0.88;0.47;;;17.80;63.40;;;;;;4973176;28;20511;-13
2022/04/12 12:16:00;;;;;;;0.50;0.50;;;17.80;63.10;;;;;;4975749;28;20452;-14
2022/04/12 12:18:26;;;;;;;0.70;0.40;;;17.80;63.10;;;;;;4979907;28;20067;-14
2022/04/12 12:20:52;;;;;;;1.73;0.50;;;17.80;63.30;;;;;;4979105;28;20500;-13
2022/04/12 12:23:17;;;;;;;1.02;0.50;;;17.90;63.30;;;;;;4978484;28;20066;-14
2022/04/12 12:25:46;;;;;;;0.55;0.50;;;17.90;63.50;;;;;;5010673;28;20056;-13
2022/04/12 12:28:22;;;;;;;2.88;0.47;;;17.80;63.50;;;;;;4979869;28;20039;-14
2022/04/12 12:31:08;;;;;;;0.60;0.40;;;17.80;63.40;;;;;;4977060;28;20046;-14
2022/04/12 12:33:43;;;;;;;2.45;0.55;;;17.90;63.60;;;;;;4974707;28;20480;-14
2022/04/12 12:36:22;;;;;;;1.77;0.60;;;17.80;63.30;;;;;;4962263;28;20135;-14
2022/04/12 12:38:48;;;;;;;0.20;0.20;;;17.80;63.40;;;;;;4968327;28;20054;-13
2022/04/12 12:41:25;;;;;;;0.85;0.40;;;17.80;63.50;;;;;;4970031;28;20051;-13
2022/04/12 12:43:57;;;;;;;1.02;0.50;;;17.90;63.30;;;;;;4959585;28;20035;-13
2022/04/12 12:46:27;;;;;;;0.95;0.40;;;17.90;63.10;;;;;;4967009;28;20047;-13
2022/04/12 12:49:16;;;;;;;3.05;0.50;;;17.80;63.50;;;;;;4977440;28;20200;-14